sensor_id;sensor_type;location;lat;lon;timestamp;temperature;humidity
13310;DHT22;6723;48.256;16.402;2022-08-19T00:01:33;23.50;99.90
13310;DHT22;6723;48.256;16.402;2022-08-19T00:04:02;23.40;99.90
13310;DHT22;6723;48.256;16.402;2022-08-19T00:06:29;23.40;99.90
13310;DHT22;6723;48.256;16.402;2022-08-19T00:08:56;23.30;99.90
13310;DHT22;6723;48.256;16.402;2022-08-19T00:11:22;23.30;99.90
13310;DHT22;6723;48.256;16.402;2022-08-19T00:13:50;23.30;99.90
13310;DHT22;6723;48.256;16.402;2022-08-19T00:16:16;23.20;99.90
13310;DHT22;6723;48.256;16.402;2022-08-19T00:18:45;23.20;99.90
13310;DHT22;6723;48.256;16.402;2022-08-19T00:21:10;23.10;99.90
13310;DHT22;6723;48.256;16.402;2022-08-19T00:23:36;23.10;99.90
13310;DHT22;6723;48.256;16.402;2022-08-19T00:26:07;23.10;99.90
13310;DHT22;6723;48.256;16.402;2022-08-19T00:28:33;23.10;99.90
13310;DHT22;6723;48.256;16.402;2022-08-19T00:31:02;23.10;99.90
13310;DHT22;6723;48.256;16.402;2022-08-19T00:33:31;23.00;99.90
13310;DHT22;6723;48.256;16.402;2022-08-19T00:36:01;22.90;99.90
13310;DHT22;6723;48.256;16.402;2022-08-19T00:38:27;22.90;99.90
13310;DHT22;6723;48.256;16.402;2022-08-19T00:40:54;22.80;99.90
13310;DHT22;6723;48.256;16.402;2022-08-19T00:43:23;22.80;99.90
13310;DHT22;6723;48.256;16.402;2022-08-19T00:45:49;22.80;99.90
13310;DHT22;6723;48.256;16.402;2022-08-19T00:48:17;22.80;99.90
13310;DHT22;6723;48.256;16.402;2022-08-19T00:50:44;22.80;99.90
13310;DHT22;6723;48.256;16.402;2022-08-19T00:53:14;22.80;99.90
13310;DHT22;6723;48.256;16.402;2022-08-19T00:55:44;22.80;99.90
13310;DHT22;6723;48.256;16.402;2022-08-19T00:58:15;22.80;99.90
13310;DHT22;6723;48.256;16.402;2022-08-19T01:00:43;22.70;99.90
13310;DHT22;6723;48.256;16.402;2022-08-19T01:03:13;22.60;99.90
13310;DHT22;6723;48.256;16.402;2022-08-19T01:05:42;22.60;99.90
13310;DHT22;6723;48.256;16.402;2022-08-19T01:08:09;22.60;99.90
13310;DHT22;6723;48.256;16.402;2022-08-19T01:10:40;22.60;99.90
13310;DHT22;6723;48.256;16.402;2022-08-19T01:13:07;22.60;99.90
13310;DHT22;6723;48.256;16.402;2022-08-19T01:15:42;22.50;99.90
13310;DHT22;6723;48.256;16.402;2022-08-19T01:18:11;22.50;99.90
13310;DHT22;6723;48.256;16.402;2022-08-19T01:20:38;22.40;99.90
13310;DHT22;6723;48.256;16.402;2022-08-19T01:23:04;22.40;99.90
13310;DHT22;6723;48.256;16.402;2022-08-19T01:25:41;22.40;99.90
13310;DHT22;6723;48.256;16.402;2022-08-19T01:28:18;22.40;99.90
13310;DHT22;6723;48.256;16.402;2022-08-19T01:30:46;22.40;99.90
13310;DHT22;6723;48.256;16.402;2022-08-19T01:33:13;22.40;99.90
13310;DHT22;6723;48.256;16.402;2022-08-19T01:35:40;22.40;99.90
13310;DHT22;6723;48.256;16.402;2022-08-19T01:38:10;22.40;99.90
13310;DHT22;6723;48.256;16.402;2022-08-19T01:40:38;22.40;99.90
13310;DHT22;6723;48.256;16.402;2022-08-19T01:43:05;22.40;99.90
13310;DHT22;6723;48.256;16.402;2022-08-19T01:45:33;22.30;99.90
13310;DHT22;6723;48.256;16.402;2022-08-19T01:48:01;22.30;99.90
13310;DHT22;6723;48.256;16.402;2022-08-19T01:50:28;22.40;99.90
13310;DHT22;6723;48.256;16.402;2022-08-19T01:52:54;22.30;99.90
13310;DHT22;6723;48.256;16.402;2022-08-19T01:55:21;22.40;99.90
13310;DHT22;6723;48.256;16.402;2022-08-19T01:57:52;22.30;99.90
13310;DHT22;6723;48.256;16.402;2022-08-19T02:00:21;22.30;99.90
13310;DHT22;6723;48.256;16.402;2022-08-19T02:02:48;22.20;99.90
13310;DHT22;6723;48.256;16.402;2022-08-19T02:05:14;22.30;99.90
13310;DHT22;6723;48.256;16.402;2022-08-19T02:07:41;22.20;99.90
13310;DHT22;6723;48.256;16.402;2022-08-19T02:10:11;22.10;99.90
13310;DHT22;6723;48.256;16.402;2022-08-19T02:12:37;22.20;99.90
13310;DHT22;6723;48.256;16.402;2022-08-19T02:15:04;22.10;99.90
13310;DHT22;6723;48.256;16.402;2022-08-19T02:17:37;22.10;99.90
13310;DHT22;6723;48.256;16.402;2022-08-19T02:20:04;22.00;99.90
13310;DHT22;6723;48.256;16.402;2022-08-19T02:22:31;22.10;99.90
13310;DHT22;6723;48.256;16.402;2022-08-19T02:24:57;22.10;99.90
13310;DHT22;6723;48.256;16.402;2022-08-19T02:27:23;22.00;99.90
13310;DHT22;6723;48.256;16.402;2022-08-19T02:29:50;22.00;99.90
13310;DHT22;6723;48.256;16.402;2022-08-19T02:32:17;22.00;99.90
13310;DHT22;6723;48.256;16.402;2022-08-19T02:34:45;22.00;99.90
13310;DHT22;6723;48.256;16.402;2022-08-19T02:37:11;22.10;99.90
13310;DHT22;6723;48.256;16.402;2022-08-19T02:39:57;22.10;99.90
13310;DHT22;6723;48.256;16.402;2022-08-19T02:42:24;22.10;99.90
13310;DHT22;6723;48.256;16.402;2022-08-19T02:44:50;22.10;99.90
13310;DHT22;6723;48.256;16.402;2022-08-19T02:47:18;22.10;99.90
13310;DHT22;6723;48.256;16.402;2022-08-19T02:49:45;22.10;99.90
13310;DHT22;6723;48.256;16.402;2022-08-19T02:52:12;22.20;99.90
13310;DHT22;6723;48.256;16.402;2022-08-19T02:54:38;22.20;99.90
13310;DHT22;6723;48.256;16.402;2022-08-19T02:57:05;22.20;99.90
13310;DHT22;6723;48.256;16.402;2022-08-19T02:59:32;22.30;99.90
13310;DHT22;6723;48.256;16.402;2022-08-19T03:01:58;22.30;99.90
13310;DHT22;6723;48.256;16.402;2022-08-19T03:04:24;22.30;99.90
13310;DHT22;6723;48.256;16.402;2022-08-19T03:06:51;22.30;99.90
13310;DHT22;6723;48.256;16.402;2022-08-19T03:09:19;22.40;99.90
13310;DHT22;6723;48.256;16.402;2022-08-19T03:11:45;22.50;99.90
13310;DHT22;6723;48.256;16.402;2022-08-19T03:14:11;22.50;99.90
13310;DHT22;6723;48.256;16.402;2022-08-19T03:16:49;22.50;99.90
13310;DHT22;6723;48.256;16.402;2022-08-19T03:19:17;22.50;99.90
13310;DHT22;6723;48.256;16.402;2022-08-19T03:21:44;22.50;99.90
13310;DHT22;6723;48.256;16.402;2022-08-19T03:24:11;22.50;99.90
13310;DHT22;6723;48.256;16.402;2022-08-19T03:26:43;22.50;99.90
13310;DHT22;6723;48.256;16.402;2022-08-19T03:29:09;22.50;99.90
13310;DHT22;6723;48.256;16.402;2022-08-19T03:31:37;22.50;99.90
13310;DHT22;6723;48.256;16.402;2022-08-19T03:34:04;22.50;99.90
13310;DHT22;6723;48.256;16.402;2022-08-19T03:36:31;22.50;99.90
13310;DHT22;6723;48.256;16.402;2022-08-19T03:39:00;22.50;99.90
13310;DHT22;6723;48.256;16.402;2022-08-19T03:41:30;22.50;99.90
13310;DHT22;6723;48.256;16.402;2022-08-19T03:43:57;22.50;99.90
13310;DHT22;6723;48.256;16.402;2022-08-19T03:46:29;22.50;99.90
13310;DHT22;6723;48.256;16.402;2022-08-19T03:48:57;22.50;99.90
13310;DHT22;6723;48.256;16.402;2022-08-19T03:51:33;22.50;99.90
13310;DHT22;6723;48.256;16.402;2022-08-19T03:54:02;22.50;99.90
13310;DHT22;6723;48.256;16.402;2022-08-19T03:56:29;22.50;99.90
13310;DHT22;6723;48.256;16.402;2022-08-19T03:58:56;22.50;99.90
13310;DHT22;6723;48.256;16.402;2022-08-19T04:01:25;22.40;99.90
13310;DHT22;6723;48.256;16.402;2022-08-19T04:03:56;22.50;99.90
13310;DHT22;6723;48.256;16.402;2022-08-19T04:06:27;22.50;99.90
13310;DHT22;6723;48.256;16.402;2022-08-19T04:08:54;22.50;99.90
13310;DHT22;6723;48.256;16.402;2022-08-19T04:11:24;22.40;99.90
13310;DHT22;6723;48.256;16.402;2022-08-19T04:13:52;22.40;99.90
13310;DHT22;6723;48.256;16.402;2022-08-19T04:16:19;22.40;99.90
13310;DHT22;6723;48.256;16.402;2022-08-19T04:18:47;22.40;99.90
13310;DHT22;6723;48.256;16.402;2022-08-19T04:21:21;22.40;99.90
13310;DHT22;6723;48.256;16.402;2022-08-19T04:23:48;22.40;99.90
13310;DHT22;6723;48.256;16.402;2022-08-19T04:26:22;22.50;99.90
13310;DHT22;6723;48.256;16.402;2022-08-19T04:28:49;22.60;99.90
13310;DHT22;6723;48.256;16.402;2022-08-19T04:31:20;22.70;99.90
13310;DHT22;6723;48.256;16.402;2022-08-19T04:33:47;22.70;99.90
13310;DHT22;6723;48.256;16.402;2022-08-19T04:36:21;22.70;99.90
13310;DHT22;6723;48.256;16.402;2022-08-19T04:38:48;22.70;99.90
13310;DHT22;6723;48.256;16.402;2022-08-19T04:41:15;22.80;99.90
13310;DHT22;6723;48.256;16.402;2022-08-19T04:43:59;22.90;99.90
13310;DHT22;6723;48.256;16.402;2022-08-19T04:46:26;23.00;99.90
13310;DHT22;6723;48.256;16.402;2022-08-19T04:48:51;23.10;99.90
13310;DHT22;6723;48.256;16.402;2022-08-19T04:51:19;23.20;99.90
13310;DHT22;6723;48.256;16.402;2022-08-19T04:53:46;23.40;99.90
13310;DHT22;6723;48.256;16.402;2022-08-19T04:56:16;23.50;99.90
13310;DHT22;6723;48.256;16.402;2022-08-19T04:58:43;23.60;99.90
13310;DHT22;6723;48.256;16.402;2022-08-19T05:01:27;23.60;99.90
13310;DHT22;6723;48.256;16.402;2022-08-19T05:03:54;23.70;99.90
13310;DHT22;6723;48.256;16.402;2022-08-19T05:06:23;23.80;99.90
13310;DHT22;6723;48.256;16.402;2022-08-19T05:08:49;23.80;99.90
13310;DHT22;6723;48.256;16.402;2022-08-19T05:11:27;23.90;99.90
13310;DHT22;6723;48.256;16.402;2022-08-19T05:13:54;24.00;99.90
13310;DHT22;6723;48.256;16.402;2022-08-19T05:16:22;24.00;99.90
13310;DHT22;6723;48.256;16.402;2022-08-19T05:18:49;24.10;99.90
13310;DHT22;6723;48.256;16.402;2022-08-19T05:21:35;24.20;99.90
13310;DHT22;6723;48.256;16.402;2022-08-19T05:24:21;24.30;99.90
13310;DHT22;6723;48.256;16.402;2022-08-19T05:26:50;24.20;99.90
13310;DHT22;6723;48.256;16.402;2022-08-19T05:29:19;24.20;99.90
13310;DHT22;6723;48.256;16.402;2022-08-19T05:31:47;24.20;99.90
13310;DHT22;6723;48.256;16.402;2022-08-19T05:34:15;24.30;99.90
13310;DHT22;6723;48.256;16.402;2022-08-19T05:36:42;24.30;99.90
13310;DHT22;6723;48.256;16.402;2022-08-19T05:39:12;24.30;99.90
13310;DHT22;6723;48.256;16.402;2022-08-19T05:41:47;24.30;99.90
13310;DHT22;6723;48.256;16.402;2022-08-19T05:44:15;24.30;99.90
13310;DHT22;6723;48.256;16.402;2022-08-19T05:46:44;24.30;99.90
13310;DHT22;6723;48.256;16.402;2022-08-19T05:49:13;24.30;99.90
13310;DHT22;6723;48.256;16.402;2022-08-19T05:51:40;24.30;99.90
13310;DHT22;6723;48.256;16.402;2022-08-19T05:54:06;24.40;99.90
13310;DHT22;6723;48.256;16.402;2022-08-19T05:56:37;24.50;99.90
13310;DHT22;6723;48.256;16.402;2022-08-19T05:59:05;24.60;99.90
13310;DHT22;6723;48.256;16.402;2022-08-19T06:01:34;24.60;99.90
13310;DHT22;6723;48.256;16.402;2022-08-19T06:04:02;24.60;99.90
13310;DHT22;6723;48.256;16.402;2022-08-19T06:06:28;24.70;99.90
13310;DHT22;6723;48.256;16.402;2022-08-19T06:08:53;24.70;99.90
13310;DHT22;6723;48.256;16.402;2022-08-19T06:11:24;24.90;99.90
13310;DHT22;6723;48.256;16.402;2022-08-19T06:13:52;24.80;99.90
13310;DHT22;6723;48.256;16.402;2022-08-19T06:16:19;24.70;99.90
13310;DHT22;6723;48.256;16.402;2022-08-19T06:18:51;24.90;99.90
13310;DHT22;6723;48.256;16.402;2022-08-19T06:21:19;25.00;99.90
13310;DHT22;6723;48.256;16.402;2022-08-19T06:23:46;25.10;99.90
13310;DHT22;6723;48.256;16.402;2022-08-19T06:26:14;25.10;99.90
13310;DHT22;6723;48.256;16.402;2022-08-19T06:28:42;25.20;99.90
13310;DHT22;6723;48.256;16.402;2022-08-19T06:31:12;25.30;99.90
13310;DHT22;6723;48.256;16.402;2022-08-19T06:33:40;25.40;99.90
13310;DHT22;6723;48.256;16.402;2022-08-19T06:36:06;25.50;99.90
13310;DHT22;6723;48.256;16.402;2022-08-19T06:38:32;25.60;99.90
13310;DHT22;6723;48.256;16.402;2022-08-19T06:41:05;25.70;99.90
13310;DHT22;6723;48.256;16.402;2022-08-19T06:43:30;25.70;99.90
13310;DHT22;6723;48.256;16.402;2022-08-19T06:45:56;25.70;99.90
13310;DHT22;6723;48.256;16.402;2022-08-19T06:48:22;25.80;99.90
13310;DHT22;6723;48.256;16.402;2022-08-19T06:50:48;26.00;99.90
13310;DHT22;6723;48.256;16.402;2022-08-19T06:53:15;26.10;99.90
13310;DHT22;6723;48.256;16.402;2022-08-19T06:55:41;26.30;99.90
13310;DHT22;6723;48.256;16.402;2022-08-19T06:58:06;26.40;99.90
13310;DHT22;6723;48.256;16.402;2022-08-19T07:00:33;26.60;99.90
13310;DHT22;6723;48.256;16.402;2022-08-19T07:02:59;26.60;99.90
13310;DHT22;6723;48.256;16.402;2022-08-19T07:05:26;26.80;99.90
13310;DHT22;6723;48.256;16.402;2022-08-19T07:07:51;26.90;99.90
13310;DHT22;6723;48.256;16.402;2022-08-19T07:10:18;27.30;99.90
13310;DHT22;6723;48.256;16.402;2022-08-19T07:12:44;27.40;99.90
13310;DHT22;6723;48.256;16.402;2022-08-19T07:15:11;27.70;99.50
13310;DHT22;6723;48.256;16.402;2022-08-19T07:17:37;27.90;98.70
13310;DHT22;6723;48.256;16.402;2022-08-19T07:20:06;28.10;98.10
13310;DHT22;6723;48.256;16.402;2022-08-19T07:22:33;28.50;97.30
13310;DHT22;6723;48.256;16.402;2022-08-19T07:25:00;28.80;96.30
13310;DHT22;6723;48.256;16.402;2022-08-19T07:27:25;29.20;95.80
13310;DHT22;6723;48.256;16.402;2022-08-19T07:29:52;29.60;95.10
13310;DHT22;6723;48.256;16.402;2022-08-19T07:32:29;29.50;94.60
13310;DHT22;6723;48.256;16.402;2022-08-19T07:34:56;29.40;94.30
13310;DHT22;6723;48.256;16.402;2022-08-19T07:37:22;29.20;94.20
13310;DHT22;6723;48.256;16.402;2022-08-19T07:39:48;29.00;94.40
13310;DHT22;6723;48.256;16.402;2022-08-19T07:42:13;29.10;94.70
13310;DHT22;6723;48.256;16.402;2022-08-19T07:44:41;29.30;94.50
13310;DHT22;6723;48.256;16.402;2022-08-19T07:47:06;29.60;94.00
13310;DHT22;6723;48.256;16.402;2022-08-19T07:49:32;29.80;93.40
13310;DHT22;6723;48.256;16.402;2022-08-19T07:52:04;30.10;93.10
13310;DHT22;6723;48.256;16.402;2022-08-19T07:54:33;30.60;92.70
13310;DHT22;6723;48.256;16.402;2022-08-19T07:57:00;31.10;91.80
13310;DHT22;6723;48.256;16.402;2022-08-19T07:59:27;31.50;90.70
13310;DHT22;6723;48.256;16.402;2022-08-19T08:01:54;32.00;89.70
13310;DHT22;6723;48.256;16.402;2022-08-19T08:04:20;32.30;88.60
13310;DHT22;6723;48.256;16.402;2022-08-19T08:07:06;32.70;87.40
13310;DHT22;6723;48.256;16.402;2022-08-19T08:09:51;33.40;84.70
13310;DHT22;6723;48.256;16.402;2022-08-19T08:12:21;33.80;83.70
13310;DHT22;6723;48.256;16.402;2022-08-19T08:14:52;34.60;81.10
13310;DHT22;6723;48.256;16.402;2022-08-19T08:17:20;35.40;78.70
13310;DHT22;6723;48.256;16.402;2022-08-19T08:19:47;35.50;76.80
13310;DHT22;6723;48.256;16.402;2022-08-19T08:22:17;35.60;75.30
13310;DHT22;6723;48.256;16.402;2022-08-19T08:27:31;36.30;73.00
13310;DHT22;6723;48.256;16.402;2022-08-19T08:29:57;36.20;72.00
13310;DHT22;6723;48.256;16.402;2022-08-19T08:32:23;35.60;71.00
13310;DHT22;6723;48.256;16.402;2022-08-19T08:34:49;35.70;71.20
13310;DHT22;6723;48.256;16.402;2022-08-19T08:37:15;35.60;71.70
13310;DHT22;6723;48.256;16.402;2022-08-19T08:39:41;35.60;70.30
13310;DHT22;6723;48.256;16.402;2022-08-19T08:42:27;35.70;69.60
13310;DHT22;6723;48.256;16.402;2022-08-19T08:45:00;35.80;68.80
13310;DHT22;6723;48.256;16.402;2022-08-19T08:47:32;35.90;69.10
13310;DHT22;6723;48.256;16.402;2022-08-19T08:50:06;35.80;68.80
13310;DHT22;6723;48.256;16.402;2022-08-19T08:52:37;35.60;68.10
13310;DHT22;6723;48.256;16.402;2022-08-19T08:55:13;35.90;68.00
13310;DHT22;6723;48.256;16.402;2022-08-19T09:00:24;35.80;66.90
13310;DHT22;6723;48.256;16.402;2022-08-19T09:02:56;36.10;66.80
13310;DHT22;6723;48.256;16.402;2022-08-19T09:05:25;35.90;66.30
13310;DHT22;6723;48.256;16.402;2022-08-19T09:08:08;35.50;67.10
13310;DHT22;6723;48.256;16.402;2022-08-19T09:10:49;35.10;67.90
13310;DHT22;6723;48.256;16.402;2022-08-19T09:16:09;34.80;68.50
13310;DHT22;6723;48.256;16.402;2022-08-19T09:18:50;35.10;68.10
13310;DHT22;6723;48.256;16.402;2022-08-19T09:21:21;35.70;66.90
13310;DHT22;6723;48.256;16.402;2022-08-19T09:23:49;35.80;66.00
13310;DHT22;6723;48.256;16.402;2022-08-19T09:26:18;35.90;64.60
13310;DHT22;6723;48.256;16.402;2022-08-19T09:28:47;36.10;64.90
13310;DHT22;6723;48.256;16.402;2022-08-19T09:31:19;36.30;63.40
13310;DHT22;6723;48.256;16.402;2022-08-19T09:33:46;36.20;63.90
13310;DHT22;6723;48.256;16.402;2022-08-19T09:36:15;36.60;62.70
13310;DHT22;6723;48.256;16.402;2022-08-19T09:38:42;36.70;61.00
13310;DHT22;6723;48.256;16.402;2022-08-19T09:41:13;36.90;60.20
13310;DHT22;6723;48.256;16.402;2022-08-19T09:43:41;36.90;60.20
13310;DHT22;6723;48.256;16.402;2022-08-19T09:46:08;37.10;59.80
13310;DHT22;6723;48.256;16.402;2022-08-19T09:48:39;37.00;59.50
13310;DHT22;6723;48.256;16.402;2022-08-19T09:51:12;37.30;59.80
13310;DHT22;6723;48.256;16.402;2022-08-19T09:53:44;37.30;60.00
13310;DHT22;6723;48.256;16.402;2022-08-19T09:56:11;37.00;59.60
13310;DHT22;6723;48.256;16.402;2022-08-19T09:58:38;37.10;60.00
13310;DHT22;6723;48.256;16.402;2022-08-19T10:01:06;37.10;59.30
13310;DHT22;6723;48.256;16.402;2022-08-19T10:03:33;37.30;59.80
13310;DHT22;6723;48.256;16.402;2022-08-19T10:06:01;37.50;59.30
13310;DHT22;6723;48.256;16.402;2022-08-19T10:08:34;37.90;59.10
13310;DHT22;6723;48.256;16.402;2022-08-19T10:11:00;38.50;58.40
13310;DHT22;6723;48.256;16.402;2022-08-19T10:13:29;38.50;57.20
13310;DHT22;6723;48.256;16.402;2022-08-19T10:16:02;37.60;56.50
13310;DHT22;6723;48.256;16.402;2022-08-19T10:18:28;37.10;57.60
13310;DHT22;6723;48.256;16.402;2022-08-19T10:21:05;36.80;58.70
13310;DHT22;6723;48.256;16.402;2022-08-19T10:23:37;36.40;59.20
13310;DHT22;6723;48.256;16.402;2022-08-19T10:26:05;36.10;60.40
13310;DHT22;6723;48.256;16.402;2022-08-19T10:28:35;35.90;60.60
13310;DHT22;6723;48.256;16.402;2022-08-19T10:31:09;35.80;61.10
13310;DHT22;6723;48.256;16.402;2022-08-19T10:33:36;35.50;61.50
13310;DHT22;6723;48.256;16.402;2022-08-19T10:36:05;35.10;61.70
13310;DHT22;6723;48.256;16.402;2022-08-19T10:38:31;34.80;62.00
13310;DHT22;6723;48.256;16.402;2022-08-19T10:40:58;34.30;63.30
13310;DHT22;6723;48.256;16.402;2022-08-19T10:43:32;33.90;63.20
13310;DHT22;6723;48.256;16.402;2022-08-19T10:46:02;32.60;64.90
13310;DHT22;6723;48.256;16.402;2022-08-19T10:48:29;31.50;67.50
13310;DHT22;6723;48.256;16.402;2022-08-19T10:50:57;31.50;68.40
13310;DHT22;6723;48.256;16.402;2022-08-19T10:53:41;31.10;69.70
13310;DHT22;6723;48.256;16.402;2022-08-19T10:56:07;30.90;70.50
13310;DHT22;6723;48.256;16.402;2022-08-19T10:58:51;31.10;70.80
13310;DHT22;6723;48.256;16.402;2022-08-19T11:01:17;31.10;71.90
13310;DHT22;6723;48.256;16.402;2022-08-19T11:03:42;30.80;72.00
13310;DHT22;6723;48.256;16.402;2022-08-19T11:06:09;30.50;72.30
13310;DHT22;6723;48.256;16.402;2022-08-19T11:08:36;30.30;75.70
13310;DHT22;6723;48.256;16.402;2022-08-19T11:11:04;29.80;77.80
13310;DHT22;6723;48.256;16.402;2022-08-19T11:13:32;29.10;81.50
13310;DHT22;6723;48.256;16.402;2022-08-19T11:16:01;28.50;89.50
13310;DHT22;6723;48.256;16.402;2022-08-19T11:18:29;27.90;93.00
13310;DHT22;6723;48.256;16.402;2022-08-19T11:20:55;27.40;99.90
13310;DHT22;6723;48.256;16.402;2022-08-19T11:23:30;26.70;99.90
13310;DHT22;6723;48.256;16.402;2022-08-19T11:25:56;25.90;99.90
13310;DHT22;6723;48.256;16.402;2022-08-19T11:28:22;25.50;99.90
13310;DHT22;6723;48.256;16.402;2022-08-19T11:30:48;25.20;99.90
13310;DHT22;6723;48.256;16.402;2022-08-19T11:33:13;25.10;99.90
13310;DHT22;6723;48.256;16.402;2022-08-19T11:35:40;25.00;99.90
13310;DHT22;6723;48.256;16.402;2022-08-19T11:38:06;25.10;99.90
13310;DHT22;6723;48.256;16.402;2022-08-19T11:40:32;25.70;99.90
13310;DHT22;6723;48.256;16.402;2022-08-19T11:42:58;26.30;99.90
13310;DHT22;6723;48.256;16.402;2022-08-19T11:45:26;26.90;99.90
13310;DHT22;6723;48.256;16.402;2022-08-19T11:47:53;27.70;99.90
13310;DHT22;6723;48.256;16.402;2022-08-19T11:50:37;28.00;99.90
13310;DHT22;6723;48.256;16.402;2022-08-19T11:53:05;28.30;99.90
13310;DHT22;6723;48.256;16.402;2022-08-19T11:55:31;28.20;99.90
13310;DHT22;6723;48.256;16.402;2022-08-19T11:58:08;28.50;99.90
13310;DHT22;6723;48.256;16.402;2022-08-19T12:00:35;28.90;99.90
13310;DHT22;6723;48.256;16.402;2022-08-19T12:03:02;29.40;99.90
13310;DHT22;6723;48.256;16.402;2022-08-19T12:05:28;30.40;95.90
13310;DHT22;6723;48.256;16.402;2022-08-19T12:07:54;31.20;95.10
13310;DHT22;6723;48.256;16.402;2022-08-19T12:10:20;31.40;91.70
13310;DHT22;6723;48.256;16.402;2022-08-19T12:12:47;31.80;90.90
13310;DHT22;6723;48.256;16.402;2022-08-19T12:15:13;31.60;89.30
13310;DHT22;6723;48.256;16.402;2022-08-19T12:17:40;31.10;90.80
13310;DHT22;6723;48.256;16.402;2022-08-19T12:20:08;30.90;90.30
13310;DHT22;6723;48.256;16.402;2022-08-19T12:22:36;30.80;90.30
13310;DHT22;6723;48.256;16.402;2022-08-19T12:25:02;30.90;90.10
13310;DHT22;6723;48.256;16.402;2022-08-19T12:27:28;31.10;89.30
13310;DHT22;6723;48.256;16.402;2022-08-19T12:29:54;31.20;88.60
13310;DHT22;6723;48.256;16.402;2022-08-19T12:32:20;31.70;88.50
13310;DHT22;6723;48.256;16.402;2022-08-19T12:34:47;32.10;87.10
13310;DHT22;6723;48.256;16.402;2022-08-19T12:37:13;32.00;87.80
13310;DHT22;6723;48.256;16.402;2022-08-19T12:39:41;32.60;84.80
13310;DHT22;6723;48.256;16.402;2022-08-19T12:42:11;32.40;82.40
13310;DHT22;6723;48.256;16.402;2022-08-19T12:44:39;32.40;82.80
13310;DHT22;6723;48.256;16.402;2022-08-19T12:47:05;31.70;82.80
13310;DHT22;6723;48.256;16.402;2022-08-19T12:49:33;31.10;83.80
13310;DHT22;6723;48.256;16.402;2022-08-19T12:52:06;30.50;85.50
13310;DHT22;6723;48.256;16.402;2022-08-19T12:54:35;30.10;87.80
13310;DHT22;6723;48.256;16.402;2022-08-19T12:57:08;29.90;89.00
13310;DHT22;6723;48.256;16.402;2022-08-19T12:59:36;29.70;90.60
13310;DHT22;6723;48.256;16.402;2022-08-19T13:02:03;29.50;91.10
13310;DHT22;6723;48.256;16.402;2022-08-19T13:04:32;29.60;91.30
13310;DHT22;6723;48.256;16.402;2022-08-19T13:07:00;29.70;91.20
13310;DHT22;6723;48.256;16.402;2022-08-19T13:09:26;29.90;91.30
13310;DHT22;6723;48.256;16.402;2022-08-19T13:11:52;30.00;91.00
13310;DHT22;6723;48.256;16.402;2022-08-19T13:14:17;30.10;91.00
13310;DHT22;6723;48.256;16.402;2022-08-19T13:16:44;30.10;91.00
13310;DHT22;6723;48.256;16.402;2022-08-19T13:19:10;30.00;91.10
13310;DHT22;6723;48.256;16.402;2022-08-19T13:21:37;29.90;91.00
13310;DHT22;6723;48.256;16.402;2022-08-19T13:24:03;29.60;90.90
13310;DHT22;6723;48.256;16.402;2022-08-19T13:26:29;29.70;91.20
13310;DHT22;6723;48.256;16.402;2022-08-19T13:28:55;29.60;90.70
13310;DHT22;6723;48.256;16.402;2022-08-19T13:31:41;29.30;90.10
13310;DHT22;6723;48.256;16.402;2022-08-19T13:34:33;29.30;89.80
13310;DHT22;6723;48.256;16.402;2022-08-19T13:37:01;29.30;89.60
13310;DHT22;6723;48.256;16.402;2022-08-19T13:39:32;29.30;89.00
13310;DHT22;6723;48.256;16.402;2022-08-19T13:41:59;29.00;89.70
13310;DHT22;6723;48.256;16.402;2022-08-19T13:44:26;28.90;89.40
13310;DHT22;6723;48.256;16.402;2022-08-19T13:46:59;28.80;88.90
13310;DHT22;6723;48.256;16.402;2022-08-19T13:49:28;28.60;89.90
13310;DHT22;6723;48.256;16.402;2022-08-19T13:51:55;28.40;90.60
13310;DHT22;6723;48.256;16.402;2022-08-19T13:54:21;28.20;91.30
13310;DHT22;6723;48.256;16.402;2022-08-19T13:56:47;27.80;92.70
13310;DHT22;6723;48.256;16.402;2022-08-19T13:59:12;27.50;94.10
13310;DHT22;6723;48.256;16.402;2022-08-19T14:01:39;27.40;93.90
13310;DHT22;6723;48.256;16.402;2022-08-19T14:04:06;27.30;93.80
13310;DHT22;6723;48.256;16.402;2022-08-19T14:06:32;27.40;94.30
13310;DHT22;6723;48.256;16.402;2022-08-19T14:08:58;27.50;93.90
13310;DHT22;6723;48.256;16.402;2022-08-19T14:11:25;27.60;92.20
13310;DHT22;6723;48.256;16.402;2022-08-19T14:13:50;27.70;92.50
13310;DHT22;6723;48.256;16.402;2022-08-19T14:16:16;27.90;92.60
13310;DHT22;6723;48.256;16.402;2022-08-19T14:18:42;28.10;92.70
13310;DHT22;6723;48.256;16.402;2022-08-19T14:21:15;28.20;92.50
13310;DHT22;6723;48.256;16.402;2022-08-19T14:23:41;28.50;92.20
13310;DHT22;6723;48.256;16.402;2022-08-19T14:26:10;28.60;92.20
13310;DHT22;6723;48.256;16.402;2022-08-19T14:28:38;28.80;92.10
13310;DHT22;6723;48.256;16.402;2022-08-19T14:31:06;29.10;91.70
13310;DHT22;6723;48.256;16.402;2022-08-19T14:33:32;29.00;91.90
13310;DHT22;6723;48.256;16.402;2022-08-19T14:35:58;29.10;91.20
13310;DHT22;6723;48.256;16.402;2022-08-19T14:38:24;29.00;90.70
13310;DHT22;6723;48.256;16.402;2022-08-19T14:40:50;28.80;91.00
13310;DHT22;6723;48.256;16.402;2022-08-19T14:43:18;29.00;91.00
13310;DHT22;6723;48.256;16.402;2022-08-19T14:45:43;28.70;91.10
13310;DHT22;6723;48.256;16.402;2022-08-19T14:48:09;28.50;91.80
13310;DHT22;6723;48.256;16.402;2022-08-19T14:50:36;28.60;92.20
13310;DHT22;6723;48.256;16.402;2022-08-19T14:53:05;28.80;91.60
13310;DHT22;6723;48.256;16.402;2022-08-19T14:55:32;28.90;91.80
13310;DHT22;6723;48.256;16.402;2022-08-19T14:57:58;28.90;91.00
13310;DHT22;6723;48.256;16.402;2022-08-19T15:00:24;28.70;90.80
13310;DHT22;6723;48.256;16.402;2022-08-19T15:02:50;28.50;91.10
13310;DHT22;6723;48.256;16.402;2022-08-19T15:05:16;28.70;91.50
13310;DHT22;6723;48.256;16.402;2022-08-19T15:07:43;28.70;91.30
13310;DHT22;6723;48.256;16.402;2022-08-19T15:10:10;28.60;91.00
13310;DHT22;6723;48.256;16.402;2022-08-19T15:12:37;28.90;91.10
13310;DHT22;6723;48.256;16.402;2022-08-19T15:15:11;28.60;90.20
13310;DHT22;6723;48.256;16.402;2022-08-19T15:17:43;28.80;90.50
13310;DHT22;6723;48.256;16.402;2022-08-19T15:20:15;28.80;90.60
13310;DHT22;6723;48.256;16.402;2022-08-19T15:22:41;28.50;91.10
13310;DHT22;6723;48.256;16.402;2022-08-19T15:25:10;28.40;91.50
13310;DHT22;6723;48.256;16.402;2022-08-19T15:27:38;28.50;91.40
13310;DHT22;6723;48.256;16.402;2022-08-19T15:30:06;28.50;91.20
13310;DHT22;6723;48.256;16.402;2022-08-19T15:32:34;28.50;91.00
13310;DHT22;6723;48.256;16.402;2022-08-19T15:35:02;28.50;90.90
13310;DHT22;6723;48.256;16.402;2022-08-19T15:37:29;28.60;90.80
13310;DHT22;6723;48.256;16.402;2022-08-19T15:39:55;28.50;90.70
13310;DHT22;6723;48.256;16.402;2022-08-19T15:42:21;28.50;90.50
13310;DHT22;6723;48.256;16.402;2022-08-19T15:44:47;28.50;90.50
13310;DHT22;6723;48.256;16.402;2022-08-19T15:47:13;28.40;90.10